sensor_id;sensor_type;location;lat;lon;timestamp;P1;durP1;ratioP1;P2;durP2;ratioP2
69410;SDS011;56604;48.652;9.194;2022-07-24T00:02:15;16.40;;;14.10;;
69410;SDS011;56604;48.652;9.194;2022-07-24T00:04:41;16.60;;;13.10;;
69410;SDS011;56604;48.652;9.194;2022-07-24T00:07:06;20.27;;;14.97;;
69410;SDS011;56604;48.652;9.194;2022-07-24T00:09:31;18.50;;;13.90;;
69410;SDS011;56604;48.652;9.194;2022-07-24T00:11:57;21.60;;;14.47;;
69410;SDS011;56604;48.652;9.194;2022-07-24T00:14:23;17.27;;;13.77;;
69410;SDS011;56604;48.652;9.194;2022-07-24T00:16:48;21.93;;;15.00;;
69410;SDS011;56604;48.652;9.194;2022-07-24T00:19:14;17.10;;;13.93;;
69410;SDS011;56604;48.652;9.194;2022-07-24T00:21:39;16.63;;;13.30;;
69410;SDS011;56604;48.652;9.194;2022-07-24T00:24:05;16.10;;;14.20;;
69410;SDS011;56604;48.652;9.194;2022-07-24T00:26:30;23.50;;;15.30;;
69410;SDS011;56604;48.652;9.194;2022-07-24T00:28:56;20.53;;;14.57;;
69410;SDS011;56604;48.652;9.194;2022-07-24T00:31:21;22.37;;;15.70;;
69410;SDS011;56604;48.652;9.194;2022-07-24T00:33:46;21.93;;;15.37;;
69410;SDS011;56604;48.652;9.194;2022-07-24T00:36:13;30.63;;;16.30;;
69410;SDS011;56604;48.652;9.194;2022-07-24T00:38:39;18.20;;;15.60;;
69410;SDS011;56604;48.652;9.194;2022-07-24T00:41:04;16.53;;;14.70;;
69410;SDS011;56604;48.652;9.194;2022-07-24T00:43:30;15.50;;;13.83;;
69410;SDS011;56604;48.652;9.194;2022-07-24T00:45:56;17.70;;;14.30;;
69410;SDS011;56604;48.652;9.194;2022-07-24T00:48:21;20.87;;;14.70;;
69410;SDS011;56604;48.652;9.194;2022-07-24T00:50:47;19.37;;;13.43;;
69410;SDS011;56604;48.652;9.194;2022-07-24T00:53:13;22.47;;;13.83;;
69410;SDS011;56604;48.652;9.194;2022-07-24T00:55:39;19.87;;;14.40;;
69410;SDS011;56604;48.652;9.194;2022-07-24T00:58:05;22.60;;;14.07;;
69410;SDS011;56604;48.652;9.194;2022-07-24T01:00:30;19.87;;;14.03;;
69410;SDS011;56604;48.652;9.194;2022-07-24T01:02:55;24.17;;;15.20;;
69410;SDS011;56604;48.652;9.194;2022-07-24T01:05:21;17.20;;;14.87;;
69410;SDS011;56604;48.652;9.194;2022-07-24T01:07:47;21.90;;;14.93;;
69410;SDS011;56604;48.652;9.194;2022-07-24T01:10:13;21.47;;;15.00;;
69410;SDS011;56604;48.652;9.194;2022-07-24T01:12:39;18.30;;;15.20;;
69410;SDS011;56604;48.652;9.194;2022-07-24T01:15:06;17.53;;;15.07;;
69410;SDS011;56604;48.652;9.194;2022-07-24T01:17:34;17.70;;;14.00;;
69410;SDS011;56604;48.652;9.194;2022-07-24T01:20:00;16.80;;;14.60;;
69410;SDS011;56604;48.652;9.194;2022-07-24T01:22:27;18.10;;;15.20;;
69410;SDS011;56604;48.652;9.194;2022-07-24T01:24:53;24.93;;;14.10;;
69410;SDS011;56604;48.652;9.194;2022-07-24T01:27:20;14.67;;;13.20;;
69410;SDS011;56604;48.652;9.194;2022-07-24T01:29:46;22.83;;;13.73;;
69410;SDS011;56604;48.652;9.194;2022-07-24T01:32:12;18.60;;;14.47;;
69410;SDS011;56604;48.652;9.194;2022-07-24T01:34:37;14.13;;;12.63;;
69410;SDS011;56604;48.652;9.194;2022-07-24T01:37:03;21.93;;;13.93;;
69410;SDS011;56604;48.652;9.194;2022-07-24T01:39:28;18.90;;;13.70;;
69410;SDS011;56604;48.652;9.194;2022-07-24T01:41:53;17.63;;;13.60;;
69410;SDS011;56604;48.652;9.194;2022-07-24T01:44:19;13.10;;;11.87;;
69410;SDS011;56604;48.652;9.194;2022-07-24T01:46:44;16.87;;;13.30;;
69410;SDS011;56604;48.652;9.194;2022-07-24T01:49:10;17.30;;;14.20;;
69410;SDS011;56604;48.652;9.194;2022-07-24T01:51:35;15.80;;;13.80;;
69410;SDS011;56604;48.652;9.194;2022-07-24T01:54:00;20.87;;;13.30;;
69410;SDS011;56604;48.652;9.194;2022-07-24T01:56:27;16.13;;;14.33;;
69410;SDS011;56604;48.652;9.194;2022-07-24T01:58:53;18.03;;;13.73;;
69410;SDS011;56604;48.652;9.194;2022-07-24T02:01:19;17.43;;;13.47;;
69410;SDS011;56604;48.652;9.194;2022-07-24T02:03:44;15.23;;;13.53;;
69410;SDS011;56604;48.652;9.194;2022-07-24T02:06:10;15.83;;;13.87;;
69410;SDS011;56604;48.652;9.194;2022-07-24T02:08:35;19.63;;;13.70;;
69410;SDS011;56604;48.652;9.194;2022-07-24T02:11:00;16.37;;;12.80;;
69410;SDS011;56604;48.652;9.194;2022-07-24T02:13:26;21.20;;;13.73;;
69410;SDS011;56604;48.652;9.194;2022-07-24T02:15:51;17.40;;;13.40;;
69410;SDS011;56604;48.652;9.194;2022-07-24T02:18:17;18.60;;;13.30;;
69410;SDS011;56604;48.652;9.194;2022-07-24T02:20:43;17.03;;;13.93;;
69410;SDS011;56604;48.652;9.194;2022-07-24T02:23:08;14.40;;;12.90;;
69410;SDS011;56604;48.652;9.194;2022-07-24T02:25:34;16.53;;;13.90;;
69410;SDS011;56604;48.652;9.194;2022-07-24T02:27:59;15.30;;;12.37;;
69410;SDS011;56604;48.652;9.194;2022-07-24T02:30:24;23.97;;;13.93;;
69410;SDS011;56604;48.652;9.194;2022-07-24T02:32:50;13.87;;;12.40;;
69410;SDS011;56604;48.652;9.194;2022-07-24T02:35:16;19.23;;;11.90;;
69410;SDS011;56604;48.652;9.194;2022-07-24T02:37:42;16.70;;;13.50;;
69410;SDS011;56604;48.652;9.194;2022-07-24T02:40:10;18.67;;;13.17;;
69410;SDS011;56604;48.652;9.194;2022-07-24T02:42:36;15.20;;;12.43;;
69410;SDS011;56604;48.652;9.194;2022-07-24T02:45:03;15.23;;;12.70;;
69410;SDS011;56604;48.652;9.194;2022-07-24T02:47:29;17.80;;;13.10;;
69410;SDS011;56604;48.652;9.194;2022-07-24T02:49:55;14.30;;;12.80;;
69410;SDS011;56604;48.652;9.194;2022-07-24T02:52:20;17.20;;;13.07;;
69410;SDS011;56604;48.652;9.194;2022-07-24T02:54:45;18.97;;;12.70;;
69410;SDS011;56604;48.652;9.194;2022-07-24T02:57:11;14.83;;;13.33;;
69410;SDS011;56604;48.652;9.194;2022-07-24T02:59:36;15.80;;;13.30;;
69410;SDS011;56604;48.652;9.194;2022-07-24T03:02:01;15.33;;;12.90;;
69410;SDS011;56604;48.652;9.194;2022-07-24T03:04:27;13.60;;;11.87;;
69410;SDS011;56604;48.652;9.194;2022-07-24T03:06:52;16.23;;;11.43;;
69410;SDS011;56604;48.652;9.194;2022-07-24T03:09:17;14.23;;;11.93;;
69410;SDS011;56604;48.652;9.194;2022-07-24T03:11:43;14.80;;;12.60;;
69410;SDS011;56604;48.652;9.194;2022-07-24T03:14:08;15.97;;;11.50;;
69410;SDS011;56604;48.652;9.194;2022-07-24T03:16:33;17.37;;;11.97;;
69410;SDS011;56604;48.652;9.194;2022-07-24T03:18:59;14.90;;;12.10;;
69410;SDS011;56604;48.652;9.194;2022-07-24T03:21:24;15.73;;;12.23;;
69410;SDS011;56604;48.652;9.194;2022-07-24T03:23:50;13.50;;;11.90;;
69410;SDS011;56604;48.652;9.194;2022-07-24T03:26:15;19.93;;;12.30;;
69410;SDS011;56604;48.652;9.194;2022-07-24T03:28:40;13.20;;;11.80;;
69410;SDS011;56604;48.652;9.194;2022-07-24T03:31:06;13.80;;;12.33;;
69410;SDS011;56604;48.652;9.194;2022-07-24T03:33:31;15.03;;;12.90;;
69410;SDS011;56604;48.652;9.194;2022-07-24T03:35:56;16.13;;;12.07;;
69410;SDS011;56604;48.652;9.194;2022-07-24T03:38:22;16.77;;;11.07;;
69410;SDS011;56604;48.652;9.194;2022-07-24T03:40:47;13.30;;;11.90;;
69410;SDS011;56604;48.652;9.194;2022-07-24T03:43:13;17.93;;;12.20;;
69410;SDS011;56604;48.652;9.194;2022-07-24T03:45:38;12.53;;;11.23;;
69410;SDS011;56604;48.652;9.194;2022-07-24T03:48:04;14.63;;;12.20;;
69410;SDS011;56604;48.652;9.194;2022-07-24T03:50:29;13.20;;;11.80;;
69410;SDS011;56604;48.652;9.194;2022-07-24T03:52:54;13.10;;;11.50;;
69410;SDS011;56604;48.652;9.194;2022-07-24T03:55:20;15.30;;;10.83;;
69410;SDS011;56604;48.652;9.194;2022-07-24T03:57:45;15.77;;;11.80;;
69410;SDS011;56604;48.652;9.194;2022-07-24T04:00:11;12.87;;;11.57;;
69410;SDS011;56604;48.652;9.194;2022-07-24T04:02:37;15.60;;;12.30;;
69410;SDS011;56604;48.652;9.194;2022-07-24T04:05:02;16.33;;;11.43;;
69410;SDS011;56604;48.652;9.194;2022-07-24T04:07:28;14.83;;;10.27;;
69410;SDS011;56604;48.652;9.194;2022-07-24T04:09:54;15.93;;;11.63;;
69410;SDS011;56604;48.652;9.194;2022-07-24T04:12:19;26.10;;;11.40;;
69410;SDS011;56604;48.652;9.194;2022-07-24T04:14:45;14.90;;;10.37;;
69410;SDS011;56604;48.652;9.194;2022-07-24T04:17:10;14.43;;;11.43;;
69410;SDS011;56604;48.652;9.194;2022-07-24T04:19:36;13.67;;;10.80;;
69410;SDS011;56604;48.652;9.194;2022-07-24T04:22:01;13.20;;;11.60;;
69410;SDS011;56604;48.652;9.194;2022-07-24T04:24:26;13.93;;;11.20;;
69410;SDS011;56604;48.652;9.194;2022-07-24T04:26:52;15.70;;;10.80;;
69410;SDS011;56604;48.652;9.194;2022-07-24T04:29:17;11.73;;;9.60;;
69410;SDS011;56604;48.652;9.194;2022-07-24T04:31:42;12.37;;;11.07;;
69410;SDS011;56604;48.652;9.194;2022-07-24T04:34:08;19.20;;;10.47;;
69410;SDS011;56604;48.652;9.194;2022-07-24T04:36:33;14.27;;;10.70;;
69410;SDS011;56604;48.652;9.194;2022-07-24T04:38:58;14.43;;;9.97;;
69410;SDS011;56604;48.652;9.194;2022-07-24T04:41:24;12.87;;;10.90;;
69410;SDS011;56604;48.652;9.194;2022-07-24T04:43:49;13.47;;;10.90;;
69410;SDS011;56604;48.652;9.194;2022-07-24T04:46:15;12.70;;;10.40;;
69410;SDS011;56604;48.652;9.194;2022-07-24T04:48:41;13.23;;;10.57;;
69410;SDS011;56604;48.652;9.194;2022-07-24T04:51:06;14.63;;;10.43;;
69410;SDS011;56604;48.652;9.194;2022-07-24T04:53:32;11.43;;;10.33;;
69410;SDS011;56604;48.652;9.194;2022-07-24T04:55:57;13.10;;;10.53;;
69410;SDS011;56604;48.652;9.194;2022-07-24T04:58:23;11.40;;;10.20;;
69410;SDS011;56604;48.652;9.194;2022-07-24T05:00:48;14.40;;;9.50;;
69410;SDS011;56604;48.652;9.194;2022-07-24T05:03:14;10.67;;;9.57;;
69410;SDS011;56604;48.652;9.194;2022-07-24T05:05:39;10.33;;;8.83;;
69410;SDS011;56604;48.652;9.194;2022-07-24T05:08:04;10.10;;;9.10;;
69410;SDS011;56604;48.652;9.194;2022-07-24T05:10:30;11.00;;;9.37;;
69410;SDS011;56604;48.652;9.194;2022-07-24T05:12:55;9.90;;;8.37;;
69410;SDS011;56604;48.652;9.194;2022-07-24T05:15:20;8.37;;;7.60;;
69410;SDS011;56604;48.652;9.194;2022-07-24T05:17:46;10.10;;;8.33;;
69410;SDS011;56604;48.652;9.194;2022-07-24T05:20:12;9.40;;;8.47;;
69410;SDS011;56604;48.652;9.194;2022-07-24T05:22:38;17.37;;;7.70;;
69410;SDS011;56604;48.652;9.194;2022-07-24T05:25:03;9.80;;;6.90;;
69410;SDS011;56604;48.652;9.194;2022-07-24T05:27:29;7.73;;;7.13;;
69410;SDS011;56604;48.652;9.194;2022-07-24T05:29:55;7.47;;;6.83;;
69410;SDS011;56604;48.652;9.194;2022-07-24T05:32:20;8.37;;;7.57;;
69410;SDS011;56604;48.652;9.194;2022-07-24T05:34:45;7.83;;;7.03;;
69410;SDS011;56604;48.652;9.194;2022-07-24T05:37:11;10.10;;;7.60;;
69410;SDS011;56604;48.652;9.194;2022-07-24T05:39:36;6.80;;;6.30;;
69410;SDS011;56604;48.652;9.194;2022-07-24T05:42:02;8.90;;;6.43;;
69410;SDS011;56604;48.652;9.194;2022-07-24T05:44:28;7.90;;;6.57;;
69410;SDS011;56604;48.652;9.194;2022-07-24T05:46:53;7.47;;;6.83;;
69410;SDS011;56604;48.652;9.194;2022-07-24T05:49:19;7.17;;;6.57;;
69410;SDS011;56604;48.652;9.194;2022-07-24T05:51:44;7.20;;;6.33;;
69410;SDS011;56604;48.652;9.194;2022-07-24T05:54:09;9.70;;;7.17;;
69410;SDS011;56604;48.652;9.194;2022-07-24T05:56:35;8.70;;;6.50;;
69410;SDS011;56604;48.652;9.194;2022-07-24T05:59:00;7.45;;;6.85;;
69410;SDS011;56604;48.652;9.194;2022-07-24T06:01:25;7.20;;;6.60;;
69410;SDS011;56604;48.652;9.194;2022-07-24T06:03:51;7.18;;;6.55;;
69410;SDS011;56604;48.652;9.194;2022-07-24T06:06:16;7.35;;;6.65;;
69410;SDS011;56604;48.652;9.194;2022-07-24T06:08:41;9.77;;;7.13;;
69410;SDS011;56604;48.652;9.194;2022-07-24T06:11:07;7.10;;;6.40;;
69410;SDS011;56604;48.652;9.194;2022-07-24T06:13:32;9.02;;;6.38;;
69410;SDS011;56604;48.652;9.194;2022-07-24T06:15:58;7.10;;;6.45;;
69410;SDS011;56604;48.652;9.194;2022-07-24T06:18:23;7.40;;;6.65;;
69410;SDS011;56604;48.652;9.194;2022-07-24T06:20:48;6.55;;;6.05;;
69410;SDS011;56604;48.652;9.194;2022-07-24T06:23:14;9.38;;;6.68;;
69410;SDS011;56604;48.652;9.194;2022-07-24T06:25:39;7.30;;;6.53;;
69410;SDS011;56604;48.652;9.194;2022-07-24T06:28:04;11.60;;;6.60;;
69410;SDS011;56604;48.652;9.194;2022-07-24T06:30:30;8.05;;;7.35;;
69410;SDS011;56604;48.652;9.194;2022-07-24T06:32:57;7.00;;;6.32;;
69410;SDS011;56604;48.652;9.194;2022-07-24T06:35:24;6.85;;;5.85;;
69410;SDS011;56604;48.652;9.194;2022-07-24T06:37:51;6.85;;;6.20;;
69410;SDS011;56604;48.652;9.194;2022-07-24T06:40:17;7.00;;;6.00;;
69410;SDS011;56604;48.652;9.194;2022-07-24T06:42:44;8.35;;;6.55;;
69410;SDS011;56604;48.652;9.194;2022-07-24T06:45:10;7.90;;;6.18;;
69410;SDS011;56604;48.652;9.194;2022-07-24T06:47:36;6.03;;;5.63;;
69410;SDS011;56604;48.652;9.194;2022-07-24T06:50:01;7.18;;;6.45;;
69410;SDS011;56604;48.652;9.194;2022-07-24T06:52:27;10.82;;;5.03;;
69410;SDS011;56604;48.652;9.194;2022-07-24T06:54:52;7.07;;;6.50;;
69410;SDS011;56604;48.652;9.194;2022-07-24T06:57:18;6.50;;;5.68;;
69410;SDS011;56604;48.652;9.194;2022-07-24T06:59:43;7.28;;;5.72;;
69410;SDS011;56604;48.652;9.194;2022-07-24T07:02:09;6.45;;;5.85;;
69410;SDS011;56604;48.652;9.194;2022-07-24T07:04:34;7.13;;;6.53;;
69410;SDS011;56604;48.652;9.194;2022-07-24T07:06:59;6.10;;;5.50;;
69410;SDS011;56604;48.652;9.194;2022-07-24T07:09:25;6.43;;;5.93;;
69410;SDS011;56604;48.652;9.194;2022-07-24T07:11:50;6.22;;;5.78;;
69410;SDS011;56604;48.652;9.194;2022-07-24T07:14:16;6.40;;;5.80;;
69410;SDS011;56604;48.652;9.194;2022-07-24T07:16:41;6.22;;;5.70;;
69410;SDS011;56604;48.652;9.194;2022-07-24T07:19:07;6.53;;;5.93;;
69410;SDS011;56604;48.652;9.194;2022-07-24T07:21:32;6.07;;;5.57;;
69410;SDS011;56604;48.652;9.194;2022-07-24T07:23:57;6.43;;;5.90;;
69410;SDS011;56604;48.652;9.194;2022-07-24T07:26:23;6.38;;;5.85;;
69410;SDS011;56604;48.652;9.194;2022-07-24T07:28:48;5.28;;;4.97;;
69410;SDS011;56604;48.652;9.194;2022-07-24T07:31:14;5.63;;;5.13;;
69410;SDS011;56604;48.652;9.194;2022-07-24T07:33:39;5.00;;;4.65;;
69410;SDS011;56604;48.652;9.194;2022-07-24T07:36:04;6.28;;;5.10;;
69410;SDS011;56604;48.652;9.194;2022-07-24T07:38:30;5.43;;;5.10;;
69410;SDS011;56604;48.652;9.194;2022-07-24T07:40:55;4.72;;;4.47;;
69410;SDS011;56604;48.652;9.194;2022-07-24T07:43:21;5.50;;;5.20;;
69410;SDS011;56604;48.652;9.194;2022-07-24T07:45:46;8.27;;;5.65;;
69410;SDS011;56604;48.652;9.194;2022-07-24T07:48:11;6.53;;;5.93;;
69410;SDS011;56604;48.652;9.194;2022-07-24T07:50:37;6.75;;;5.93;;
69410;SDS011;56604;48.652;9.194;2022-07-24T07:53:02;6.93;;;5.60;;
69410;SDS011;56604;48.652;9.194;2022-07-24T07:55:27;6.90;;;6.43;;
69410;SDS011;56604;48.652;9.194;2022-07-24T07:57:53;7.03;;;6.43;;
69410;SDS011;56604;48.652;9.194;2022-07-24T08:00:18;7.32;;;6.57;;
69410;SDS011;56604;48.652;9.194;2022-07-24T08:02:44;6.78;;;6.18;;
69410;SDS011;56604;48.652;9.194;2022-07-24T08:05:10;8.43;;;6.90;;
69410;SDS011;56604;48.652;9.194;2022-07-24T08:07:36;7.47;;;6.45;;
69410;SDS011;56604;48.652;9.194;2022-07-24T08:10:01;6.88;;;6.38;;
69410;SDS011;56604;48.652;9.194;2022-07-24T08:12:27;6.90;;;6.30;;
69410;SDS011;56604;48.652;9.194;2022-07-24T08:14:52;6.68;;;6.15;;
69410;SDS011;56604;48.652;9.194;2022-07-24T08:17:18;8.15;;;6.28;;
69410;SDS011;56604;48.652;9.194;2022-07-24T08:19:43;6.60;;;6.10;;
69410;SDS011;56604;48.652;9.194;2022-07-24T08:22:10;6.18;;;5.78;;
69410;SDS011;56604;48.652;9.194;2022-07-24T08:24:36;6.53;;;6.03;;
69410;SDS011;56604;48.652;9.194;2022-07-24T08:27:01;6.03;;;5.45;;
69410;SDS011;56604;48.652;9.194;2022-07-24T08:29:26;11.75;;;6.10;;
69410;SDS011;56604;48.652;9.194;2022-07-24T08:31:53;6.40;;;5.95;;
69410;SDS011;56604;48.652;9.194;2022-07-24T08:34:18;5.85;;;5.45;;
69410;SDS011;56604;48.652;9.194;2022-07-24T08:36:44;6.80;;;6.30;;
69410;SDS011;56604;48.652;9.194;2022-07-24T08:39:14;6.00;;;5.70;;
69410;SDS011;56604;48.652;9.194;2022-07-24T08:41:40;6.38;;;5.78;;
69410;SDS011;56604;48.652;9.194;2022-07-24T08:44:06;5.88;;;5.47;;
69410;SDS011;56604;48.652;9.194;2022-07-24T08:46:32;5.63;;;5.22;;
69410;SDS011;56604;48.652;9.194;2022-07-24T08:48:58;6.55;;;5.95;;
69410;SDS011;56604;48.652;9.194;2022-07-24T08:51:27;6.97;;;5.60;;
69410;SDS011;56604;48.652;9.194;2022-07-24T08:53:57;6.68;;;6.07;;
69410;SDS011;56604;48.652;9.194;2022-07-24T08:56:23;7.38;;;6.78;;
69410;SDS011;56604;48.652;9.194;2022-07-24T08:58:48;6.57;;;6.07;;
69410;SDS011;56604;48.652;9.194;2022-07-24T09:01:14;10.00;;;5.95;;
69410;SDS011;56604;48.652;9.194;2022-07-24T09:03:43;7.70;;;6.10;;
69410;SDS011;56604;48.652;9.194;2022-07-24T09:06:11;12.93;;;6.43;;
69410;SDS011;56604;48.652;9.194;2022-07-24T09:08:38;7.10;;;6.40;;
69410;SDS011;56604;48.652;9.194;2022-07-24T09:11:05;6.90;;;6.20;;
69410;SDS011;56604;48.652;9.194;2022-07-24T09:13:31;7.30;;;6.70;;
69410;SDS011;56604;48.652;9.194;2022-07-24T09:16:18;6.65;;;6.03;;
69410;SDS011;56604;48.652;9.194;2022-07-24T09:18:48;7.05;;;6.10;;
69410;SDS011;56604;48.652;9.194;2022-07-24T09:21:15;6.68;;;6.18;;
69410;SDS011;56604;48.652;9.194;2022-07-24T09:23:42;8.98;;;7.13;;
69410;SDS011;56604;48.652;9.194;2022-07-24T09:26:08;6.75;;;5.78;;
69410;SDS011;56604;48.652;9.194;2022-07-24T09:28:46;6.95;;;6.32;;
69410;SDS011;56604;48.652;9.194;2022-07-24T09:31:13;7.13;;;6.22;;
69410;SDS011;56604;48.652;9.194;2022-07-24T09:33:39;10.55;;;7.07;;
69410;SDS011;56604;48.652;9.194;2022-07-24T09:36:11;7.82;;;6.95;;
69410;SDS011;56604;48.652;9.194;2022-07-24T09:38:38;8.63;;;6.57;;
69410;SDS011;56604;48.652;9.194;2022-07-24T09:41:03;7.95;;;7.25;;
69410;SDS011;56604;48.652;9.194;2022-07-24T09:43:29;8.03;;;7.13;;
69410;SDS011;56604;48.652;9.194;2022-07-24T09:48:51;8.43;;;7.73;;
69410;SDS011;56604;48.652;9.194;2022-07-24T09:51:25;7.70;;;7.10;;
69410;SDS011;56604;48.652;9.194;2022-07-24T09:53:52;7.80;;;7.20;;
69410;SDS011;56604;48.652;9.194;2022-07-24T09:56:23;10.35;;;7.18;;
69410;SDS011;56604;48.652;9.194;2022-07-24T09:58:51;8.20;;;7.35;;
69410;SDS011;56604;48.652;9.194;2022-07-24T10:01:21;7.20;;;6.55;;
69410;SDS011;56604;48.652;9.194;2022-07-24T10:03:49;6.88;;;6.38;;
69410;SDS011;56604;48.652;9.194;2022-07-24T10:06:17;6.70;;;6.20;;
69410;SDS011;56604;48.652;9.194;2022-07-24T10:08:46;6.70;;;6.10;;
69410;SDS011;56604;48.652;9.194;2022-07-24T10:11:12;8.10;;;6.43;;
69410;SDS011;56604;48.652;9.194;2022-07-24T10:13:39;9.27;;;8.20;;
69410;SDS011;56604;48.652;9.194;2022-07-24T10:18:47;8.10;;;7.30;;
69410;SDS011;56604;48.652;9.194;2022-07-24T10:21:19;7.80;;;7.03;;
69410;SDS011;56604;48.652;9.194;2022-07-24T10:23:57;8.07;;;7.37;;
69410;SDS011;56604;48.652;9.194;2022-07-24T10:29:05;9.20;;;7.90;;
69410;SDS011;56604;48.652;9.194;2022-07-24T10:31:42;9.80;;;8.80;;
69410;SDS011;56604;48.652;9.194;2022-07-24T10:34:31;9.43;;;8.53;;
69410;SDS011;56604;48.652;9.194;2022-07-24T10:37:15;10.23;;;8.87;;
69410;SDS011;56604;48.652;9.194;2022-07-24T10:42:20;8.60;;;7.80;;
69410;SDS011;56604;48.652;9.194;2022-07-24T10:45:03;8.00;;;7.30;;
69410;SDS011;56604;48.652;9.194;2022-07-24T10:47:40;9.00;;;6.90;;
69410;SDS011;56604;48.652;9.194;2022-07-24T10:50:06;12.30;;;7.20;;
69410;SDS011;56604;48.652;9.194;2022-07-24T10:52:31;8.67;;;7.20;;
69410;SDS011;56604;48.652;9.194;2022-07-24T11:00:22;7.78;;;6.03;;
69410;SDS011;56604;48.652;9.194;2022-07-24T11:02:59;7.82;;;6.63;;
69410;SDS011;56604;48.652;9.194;2022-07-24T11:06:00;6.50;;;5.90;;
69410;SDS011;56604;48.652;9.194;2022-07-24T11:08:31;7.95;;;7.25;;
69410;SDS011;56604;48.652;9.194;2022-07-24T11:10:59;9.93;;;6.63;;
69410;SDS011;56604;48.652;9.194;2022-07-24T11:18:36;11.90;;;6.73;;
69410;SDS011;56604;48.652;9.194;2022-07-24T11:21:02;8.07;;;7.23;;
69410;SDS011;56604;48.652;9.194;2022-07-24T11:23:28;8.90;;;8.10;;
69410;SDS011;56604;48.652;9.194;2022-07-24T11:29:09;8.60;;;7.80;;
69410;SDS011;56604;48.652;9.194;2022-07-24T11:31:38;7.57;;;6.80;;
69410;SDS011;56604;48.652;9.194;2022-07-24T11:34:03;6.63;;;6.17;;
69410;SDS011;56604;48.652;9.194;2022-07-24T11:36:29;7.27;;;6.57;;
69410;SDS011;56604;48.652;9.194;2022-07-24T11:38:54;8.07;;;6.50;;
69410;SDS011;56604;48.652;9.194;2022-07-24T11:41:20;6.70;;;6.20;;
69410;SDS011;56604;48.652;9.194;2022-07-24T11:43:52;7.40;;;6.70;;
69410;SDS011;56604;48.652;9.194;2022-07-24T11:46:36;13.63;;;6.30;;
69410;SDS011;56604;48.652;9.194;2022-07-24T11:49:04;7.30;;;6.60;;
69410;SDS011;56604;48.652;9.194;2022-07-24T11:51:32;10.07;;;6.50;;
69410;SDS011;56604;48.652;9.194;2022-07-24T11:54:06;7.53;;;6.40;;
69410;SDS011;56604;48.652;9.194;2022-07-24T11:56:31;7.40;;;6.70;;
69410;SDS011;56604;48.652;9.194;2022-07-24T11:58:57;6.77;;;6.27;;
69410;SDS011;56604;48.652;9.194;2022-07-24T12:01:23;7.73;;;6.83;;
69410;SDS011;56604;48.652;9.194;2022-07-24T12:03:52;8.07;;;7.27;;
69410;SDS011;56604;48.652;9.194;2022-07-24T12:06:19;6.90;;;6.30;;
69410;SDS011;56604;48.652;9.194;2022-07-24T12:08:45;9.10;;;6.30;;
69410;SDS011;56604;48.652;9.194;2022-07-24T12:11:10;9.43;;;6.40;;
69410;SDS011;56604;48.652;9.194;2022-07-24T12:13:36;9.07;;;6.50;;
69410;SDS011;56604;48.652;9.194;2022-07-24T12:16:06;9.00;;;7.30;;
69410;SDS011;56604;48.652;9.194;2022-07-24T12:18:31;7.40;;;6.67;;
69410;SDS011;56604;48.652;9.194;2022-07-24T12:21:00;10.97;;;6.90;;
69410;SDS011;56604;48.652;9.194;2022-07-24T12:23:27;10.13;;;7.20;;
69410;SDS011;56604;48.652;9.194;2022-07-24T12:25:54;7.00;;;6.50;;
69410;SDS011;56604;48.652;9.194;2022-07-24T12:28:19;7.50;;;6.80;;
69410;SDS011;56604;48.652;9.194;2022-07-24T12:30:49;9.03;;;7.10;;
69410;SDS011;56604;48.652;9.194;2022-07-24T12:33:22;8.77;;;7.70;;
69410;SDS011;56604;48.652;9.194;2022-07-24T12:36:07;8.60;;;7.43;;
69410;SDS011;56604;48.652;9.194;2022-07-24T12:41:13;7.63;;;6.93;;
69410;SDS011;56604;48.652;9.194;2022-07-24T12:46:19;8.50;;;6.93;;
69410;SDS011;56604;48.652;9.194;2022-07-24T12:48:56;7.37;;;6.77;;
69410;SDS011;56604;48.652;9.194;2022-07-24T12:51:22;7.47;;;6.73;;
69410;SDS011;56604;48.652;9.194;2022-07-24T12:53:51;7.50;;;6.90;;
69410;SDS011;56604;48.652;9.194;2022-07-24T12:56:19;8.27;;;7.50;;
69410;SDS011;56604;48.652;9.194;2022-07-24T12:58:51;8.73;;;7.10;;
69410;SDS011;56604;48.652;9.194;2022-07-24T13:01:19;8.13;;;7.33;;
69410;SDS011;56604;48.652;9.194;2022-07-24T13:03:49;14.57;;;7.83;;
69410;SDS011;56604;48.652;9.194;2022-07-24T13:06:16;7.90;;;7.20;;
69410;SDS011;56604;48.652;9.194;2022-07-24T13:08:41;8.67;;;7.83;;
69410;SDS011;56604;48.652;9.194;2022-07-24T13:11:07;14.17;;;7.60;;
69410;SDS011;56604;48.652;9.194;2022-07-24T13:13:32;9.53;;;7.77;;
69410;SDS011;56604;48.652;9.194;2022-07-24T13:15:57;8.50;;;7.50;;
69410;SDS011;56604;48.652;9.194;2022-07-24T13:18:23;8.70;;;7.97;;
69410;SDS011;56604;48.652;9.194;2022-07-24T13:20:48;8.50;;;7.70;;
69410;SDS011;56604;48.652;9.194;2022-07-24T13:23:13;8.20;;;7.50;;
69410;SDS011;56604;48.652;9.194;2022-07-24T13:25:39;8.60;;;7.77;;
69410;SDS011;56604;48.652;9.194;2022-07-24T13:28:07;9.40;;;8.50;;
69410;SDS011;56604;48.652;9.194;2022-07-24T13:30:32;10.03;;;8.30;;
69410;SDS011;56604;48.652;9.194;2022-07-24T13:32:57;9.80;;;8.90;;
69410;SDS011;56604;48.652;9.194;2022-07-24T13:35:23;9.00;;;8.10;;
69410;SDS011;56604;48.652;9.194;2022-07-24T13:37:48;9.67;;;8.67;;
69410;SDS011;56604;48.652;9.194;2022-07-24T13:40:13;11.53;;;9.40;;
69410;SDS011;56604;48.652;9.194;2022-07-24T13:42:39;8.90;;;8.07;;
69410;SDS011;56604;48.652;9.194;2022-07-24T13:45:05;9.73;;;8.30;;
69410;SDS011;56604;48.652;9.194;2022-07-24T13:47:31;9.33;;;7.50;;
69410;SDS011;56604;48.652;9.194;2022-07-24T13:49:56;8.70;;;7.90;;
69410;SDS011;56604;48.652;9.194;2022-07-24T13:52:22;10.20;;;7.77;;
69410;SDS011;56604;48.652;9.194;2022-07-24T13:54:47;10.30;;;8.40;;
69410;SDS011;56604;48.652;9.194;2022-07-24T13:57:12;9.23;;;8.43;;
69410;SDS011;56604;48.652;9.194;2022-07-24T13:59:38;8.40;;;7.50;;
69410;SDS011;56604;48.652;9.194;2022-07-24T14:02:04;8.83;;;8.00;;
69410;SDS011;56604;48.652;9.194;2022-07-24T14:04:29;9.07;;;8.17;;
69410;SDS011;56604;48.652;9.194;2022-07-24T14:06:55;8.80;;;8.00;;
69410;SDS011;56604;48.652;9.194;2022-07-24T14:09:20;9.23;;;8.33;;
69410;SDS011;56604;48.652;9.194;2022-07-24T14:11:46;9.03;;;8.27;;
69410;SDS011;56604;48.652;9.194;2022-07-24T14:14:12;9.57;;;8.50;;
69410;SDS011;56604;48.652;9.194;2022-07-24T14:16:37;10.70;;;9.43;;
69410;SDS011;56604;48.652;9.194;2022-07-24T14:19:02;9.93;;;8.93;;
69410;SDS011;56604;48.652;9.194;2022-07-24T14:21:28;10.80;;;8.47;;
69410;SDS011;56604;48.652;9.194;2022-07-24T14:23:53;8.97;;;8.03;;
69410;SDS011;56604;48.652;9.194;2022-07-24T14:26:19;8.90;;;8.10;;
69410;SDS011;56604;48.652;9.194;2022-07-24T14:28:44;18.60;;;7.40;;
69410;SDS011;56604;48.652;9.194;2022-07-24T14:31:09;8.60;;;7.70;;
69410;SDS011;56604;48.652;9.194;2022-07-24T14:33:35;12.20;;;7.83;;
69410;SDS011;56604;48.652;9.194;2022-07-24T14:36:00;8.40;;;7.60;;
69410;SDS011;56604;48.652;9.194;2022-07-24T14:38:26;10.20;;;7.70;;
69410;SDS011;56604;48.652;9.194;2022-07-24T14:40:51;8.40;;;7.60;;
69410;SDS011;56604;48.652;9.194;2022-07-24T14:43:16;8.53;;;7.47;;
69410;SDS011;56604;48.652;9.194;2022-07-24T14:45:42;12.20;;;7.77;;
69410;SDS011;56604;48.652;9.194;2022-07-24T14:48:07;12.50;;;7.73;;
69410;SDS011;56604;48.652;9.194;2022-07-24T14:50:32;12.53;;;8.07;;
69410;SDS011;56604;48.652;9.194;2022-07-24T14:52:58;9.20;;;7.93;;
69410;SDS011;56604;48.652;9.194;2022-07-24T14:55:23;9.90;;;8.90;;
69410;SDS011;56604;48.652;9.194;2022-07-24T14:57:48;8.90;;;8.10;;
69410;SDS011;56604;48.652;9.194;2022-07-24T15:00:14;9.23;;;8.43;;
69410;SDS011;56604;48.652;9.194;2022-07-24T15:02:39;15.43;;;7.80;;
69410;SDS011;56604;48.652;9.194;2022-07-24T15:05:05;8.93;;;7.77;;